Clay Center, Ohio
Current Conditions -  °F | °C
As of 1:53 AM on Wednesday 26 Nov 2014 (Local Time) from KTDZ Reporting Station
Overcast Overcast  
Wind Chill: 29°   Ceiling: 2100
Heat Index: 29°   Visibility: 10mi
Dew Point: 19°   Wind: 3mph
Humidity: 67%   Direction: 100°E
Pressure: 30.19"   Gusts: NA
Location:  41.56°N, 83.36°W
Report Text: KTDZ 260653Z AUTO 10003KT 10SM OVC021 M02/M07 A3019 RMK AO2 SLP229 T10171072 TSNO
Loading
Personal Weather Stations






























Interactive Weather Map New forecast layout! Learn more

10-Day Weather Forecast

Advertisements
Track Severe Weather on mobile